sensor_id;sensor_type;location;lat;lon;timestamp;P1;durP1;ratioP1;P2;durP2;ratioP2
3901;SDS011;1966;49.908;9.156;2024-01-06T00:00:14;12.33;;;6.90;;
3901;SDS011;1966;49.908;9.156;2024-01-06T00:05:16;12.73;;;6.20;;
3901;SDS011;1966;49.908;9.156;2024-01-06T00:10:15;7.97;;;5.83;;
3901;SDS011;1966;49.908;9.156;2024-01-06T00:15:14;8.67;;;5.60;;
3901;SDS011;1966;49.908;9.156;2024-01-06T00:20:14;7.47;;;5.50;;
3901;SDS011;1966;49.908;9.156;2024-01-06T00:25:14;8.17;;;4.80;;
3901;SDS011;1966;49.908;9.156;2024-01-06T00:30:14;8.10;;;5.30;;
3901;SDS011;1966;49.908;9.156;2024-01-06T00:35:13;8.43;;;5.90;;
3901;SDS011;1966;49.908;9.156;2024-01-06T00:40:12;10.73;;;5.60;;
3901;SDS011;1966;49.908;9.156;2024-01-06T00:45:13;11.40;;;6.13;;
3901;SDS011;1966;49.908;9.156;2024-01-06T00:50:12;9.40;;;5.60;;
3901;SDS011;1966;49.908;9.156;2024-01-06T00:55:11;9.40;;;5.47;;
3901;SDS011;1966;49.908;9.156;2024-01-06T01:00:13;6.80;;;4.57;;
3901;SDS011;1966;49.908;9.156;2024-01-06T01:05:12;10.30;;;5.13;;
3901;SDS011;1966;49.908;9.156;2024-01-06T01:10:11;11.03;;;5.57;;
3901;SDS011;1966;49.908;9.156;2024-01-06T01:15:10;8.13;;;5.37;;
3901;SDS011;1966;49.908;9.156;2024-01-06T01:20:11;6.57;;;4.93;;
3901;SDS011;1966;49.908;9.156;2024-01-06T01:25:11;9.83;;;5.00;;
3901;SDS011;1966;49.908;9.156;2024-01-06T01:30:11;6.23;;;4.40;;
3901;SDS011;1966;49.908;9.156;2024-01-06T01:35:13;8.90;;;4.80;;
3901;SDS011;1966;49.908;9.156;2024-01-06T01:40:13;6.40;;;4.57;;
3901;SDS011;1966;49.908;9.156;2024-01-06T01:45:12;15.10;;;5.00;;
3901;SDS011;1966;49.908;9.156;2024-01-06T01:50:11;6.03;;;4.60;;
3901;SDS011;1966;49.908;9.156;2024-01-06T01:55:13;7.27;;;4.03;;
3901;SDS011;1966;49.908;9.156;2024-01-06T02:00:12;6.70;;;4.00;;
3901;SDS011;1966;49.908;9.156;2024-01-06T02:05:12;7.33;;;4.30;;
3901;SDS011;1966;49.908;9.156;2024-01-06T02:10:12;7.47;;;4.80;;
3901;SDS011;1966;49.908;9.156;2024-01-06T02:15:12;7.87;;;4.67;;
3901;SDS011;1966;49.908;9.156;2024-01-06T02:20:11;5.70;;;4.03;;
3901;SDS011;1966;49.908;9.156;2024-01-06T02:25:13;7.90;;;5.30;;
3901;SDS011;1966;49.908;9.156;2024-01-06T02:30:12;8.37;;;5.43;;
3901;SDS011;1966;49.908;9.156;2024-01-06T02:35:11;12.43;;;5.30;;
3901;SDS011;1966;49.908;9.156;2024-01-06T02:40:13;6.73;;;4.83;;
3901;SDS011;1966;49.908;9.156;2024-01-06T02:45:12;6.90;;;3.80;;
3901;SDS011;1966;49.908;9.156;2024-01-06T02:50:11;5.40;;;3.80;;
3901;SDS011;1966;49.908;9.156;2024-01-06T02:55:12;6.13;;;3.13;;
3901;SDS011;1966;49.908;9.156;2024-01-06T03:00:12;4.57;;;2.80;;
3901;SDS011;1966;49.908;9.156;2024-01-06T03:05:11;4.67;;;3.20;;
3901;SDS011;1966;49.908;9.156;2024-01-06T03:10:12;4.00;;;3.23;;
3901;SDS011;1966;49.908;9.156;2024-01-06T03:15:11;5.93;;;3.87;;
3901;SDS011;1966;49.908;9.156;2024-01-06T03:20:11;7.53;;;3.90;;
3901;SDS011;1966;49.908;9.156;2024-01-06T03:25:10;6.23;;;4.20;;
3901;SDS011;1966;49.908;9.156;2024-01-06T03:30:12;5.47;;;3.47;;
3901;SDS011;1966;49.908;9.156;2024-01-06T03:35:11;5.30;;;3.00;;
3901;SDS011;1966;49.908;9.156;2024-01-06T03:40:11;4.17;;;2.90;;
3901;SDS011;1966;49.908;9.156;2024-01-06T03:45:12;5.43;;;2.50;;
3901;SDS011;1966;49.908;9.156;2024-01-06T03:50:11;3.13;;;2.77;;
3901;SDS011;1966;49.908;9.156;2024-01-06T03:55:11;6.70;;;2.90;;
3901;SDS011;1966;49.908;9.156;2024-01-06T04:00:12;3.27;;;2.47;;
3901;SDS011;1966;49.908;9.156;2024-01-06T04:05:11;5.27;;;2.80;;
3901;SDS011;1966;49.908;9.156;2024-01-06T04:10:10;5.53;;;3.13;;
3901;SDS011;1966;49.908;9.156;2024-01-06T04:15:11;4.23;;;3.10;;
3901;SDS011;1966;49.908;9.156;2024-01-06T04:20:10;3.50;;;3.00;;
3901;SDS011;1966;49.908;9.156;2024-01-06T04:25:10;2.93;;;2.63;;
3901;SDS011;1966;49.908;9.156;2024-01-06T04:30:11;4.33;;;3.30;;
3901;SDS011;1966;49.908;9.156;2024-01-06T04:35:11;4.40;;;2.90;;
3901;SDS011;1966;49.908;9.156;2024-01-06T04:40:11;6.30;;;3.40;;
3901;SDS011;1966;49.908;9.156;2024-01-06T04:45:11;6.43;;;2.77;;
3901;SDS011;1966;49.908;9.156;2024-01-06T04:50:11;3.10;;;2.80;;
3901;SDS011;1966;49.908;9.156;2024-01-06T04:55:10;8.73;;;2.90;;
3901;SDS011;1966;49.908;9.156;2024-01-06T05:00:10;4.13;;;2.63;;
3901;SDS011;1966;49.908;9.156;2024-01-06T05:05:11;3.63;;;2.73;;
3901;SDS011;1966;49.908;9.156;2024-01-06T05:10:10;3.10;;;2.57;;
3901;SDS011;1966;49.908;9.156;2024-01-06T05:15:10;3.13;;;2.83;;
3901;SDS011;1966;49.908;9.156;2024-01-06T05:20:09;3.00;;;2.63;;
3901;SDS011;1966;49.908;9.156;2024-01-06T05:25:10;2.97;;;2.73;;
3901;SDS011;1966;49.908;9.156;2024-01-06T05:30:09;6.07;;;2.83;;
3901;SDS011;1966;49.908;9.156;2024-01-06T05:35:09;5.00;;;2.97;;
3901;SDS011;1966;49.908;9.156;2024-01-06T05:40:10;3.93;;;2.80;;
3901;SDS011;1966;49.908;9.156;2024-01-06T05:45:10;6.90;;;3.70;;
3901;SDS011;1966;49.908;9.156;2024-01-06T05:50:10;3.33;;;3.00;;
3901;SDS011;1966;49.908;9.156;2024-01-06T05:55:10;3.50;;;2.80;;
3901;SDS011;1966;49.908;9.156;2024-01-06T06:00:10;7.33;;;2.90;;
3901;SDS011;1966;49.908;9.156;2024-01-06T06:05:10;2.70;;;2.50;;
3901;SDS011;1966;49.908;9.156;2024-01-06T06:10:10;8.90;;;2.97;;
3901;SDS011;1966;49.908;9.156;2024-01-06T06:15:10;2.90;;;2.63;;
3901;SDS011;1966;49.908;9.156;2024-01-06T06:20:09;2.73;;;2.37;;
3901;SDS011;1966;49.908;9.156;2024-01-06T06:25:08;3.23;;;2.60;;
3901;SDS011;1966;49.908;9.156;2024-01-06T06:30:10;3.53;;;2.50;;
3901;SDS011;1966;49.908;9.156;2024-01-06T06:35:09;5.67;;;3.37;;
3901;SDS011;1966;49.908;9.156;2024-01-06T06:40:08;7.30;;;2.70;;
3901;SDS011;1966;49.908;9.156;2024-01-06T06:45:09;3.90;;;2.70;;
3901;SDS011;1966;49.908;9.156;2024-01-06T06:50:10;5.80;;;3.90;;
3901;SDS011;1966;49.908;9.156;2024-01-06T06:55:09;3.10;;;2.80;;
3901;SDS011;1966;49.908;9.156;2024-01-06T07:00:10;5.50;;;3.27;;
3901;SDS011;1966;49.908;9.156;2024-01-06T07:05:09;5.47;;;3.37;;
3901;SDS011;1966;49.908;9.156;2024-01-06T07:10:08;5.67;;;3.23;;
3901;SDS011;1966;49.908;9.156;2024-01-06T07:15:09;8.73;;;3.50;;
3901;SDS011;1966;49.908;9.156;2024-01-06T07:20:09;4.27;;;3.60;;
3901;SDS011;1966;49.908;9.156;2024-01-06T07:25:09;7.30;;;3.20;;
3901;SDS011;1966;49.908;9.156;2024-01-06T07:30:10;4.90;;;3.20;;
3901;SDS011;1966;49.908;9.156;2024-01-06T07:35:09;3.40;;;2.97;;
3901;SDS011;1966;49.908;9.156;2024-01-06T07:40:09;4.77;;;3.43;;
3901;SDS011;1966;49.908;9.156;2024-01-06T07:45:10;5.00;;;3.50;;
3901;SDS011;1966;49.908;9.156;2024-01-06T07:50:10;4.33;;;3.20;;
3901;SDS011;1966;49.908;9.156;2024-01-06T07:55:09;4.17;;;3.70;;
3901;SDS011;1966;49.908;9.156;2024-01-06T08:00:10;8.17;;;3.70;;
3901;SDS011;1966;49.908;9.156;2024-01-06T08:05:12;6.37;;;4.60;;
3901;SDS011;1966;49.908;9.156;2024-01-06T08:10:11;5.93;;;4.90;;
3901;SDS011;1966;49.908;9.156;2024-01-06T08:15:12;5.10;;;4.60;;
3901;SDS011;1966;49.908;9.156;2024-01-06T08:20:11;5.20;;;4.67;;
3901;SDS011;1966;49.908;9.156;2024-01-06T08:25:10;9.70;;;7.70;;
3901;SDS011;1966;49.908;9.156;2024-01-06T08:30:13;9.10;;;7.07;;
3901;SDS011;1966;49.908;9.156;2024-01-06T08:35:12;8.70;;;6.30;;
3901;SDS011;1966;49.908;9.156;2024-01-06T08:40:14;11.73;;;6.27;;
3901;SDS011;1966;49.908;9.156;2024-01-06T08:45:15;5.20;;;4.70;;
3901;SDS011;1966;49.908;9.156;2024-01-06T08:50:14;5.50;;;3.63;;
3901;SDS011;1966;49.908;9.156;2024-01-06T08:55:14;6.13;;;3.77;;
3901;SDS011;1966;49.908;9.156;2024-01-06T09:00:16;8.63;;;3.63;;
3901;SDS011;1966;49.908;9.156;2024-01-06T09:05:15;6.13;;;3.90;;
3901;SDS011;1966;49.908;9.156;2024-01-06T09:10:15;4.73;;;3.87;;
3901;SDS011;1966;49.908;9.156;2024-01-06T09:15:15;5.30;;;4.43;;
3901;SDS011;1966;49.908;9.156;2024-01-06T09:20:15;6.80;;;3.87;;
3901;SDS011;1966;49.908;9.156;2024-01-06T09:25:15;6.60;;;4.20;;
3901;SDS011;1966;49.908;9.156;2024-01-06T09:30:16;6.37;;;5.17;;
3901;SDS011;1966;49.908;9.156;2024-01-06T09:35:15;6.80;;;4.20;;
3901;SDS011;1966;49.908;9.156;2024-01-06T09:40:14;6.00;;;4.90;;
3901;SDS011;1966;49.908;9.156;2024-01-06T09:45:20;12.03;;;5.83;;
3901;SDS011;1966;49.908;9.156;2024-01-06T09:50:20;8.40;;;4.50;;
3901;SDS011;1966;49.908;9.156;2024-01-06T09:55:21;7.47;;;6.70;;
3901;SDS011;1966;49.908;9.156;2024-01-06T10:00:23;6.10;;;3.30;;
3901;SDS011;1966;49.908;9.156;2024-01-06T10:05:22;4.10;;;3.80;;
3901;SDS011;1966;49.908;9.156;2024-01-06T10:10:22;4.73;;;3.80;;
3901;SDS011;1966;49.908;9.156;2024-01-06T10:15:23;4.80;;;4.30;;
3901;SDS011;1966;49.908;9.156;2024-01-06T10:20:22;4.70;;;3.50;;
3901;SDS011;1966;49.908;9.156;2024-01-06T10:25:22;4.47;;;3.80;;
3901;SDS011;1966;49.908;9.156;2024-01-06T10:30:23;3.93;;;3.50;;
3901;SDS011;1966;49.908;9.156;2024-01-06T10:35:24;6.37;;;4.50;;
3901;SDS011;1966;49.908;9.156;2024-01-06T10:40:23;5.90;;;4.07;;
3901;SDS011;1966;49.908;9.156;2024-01-06T10:45:25;6.77;;;4.47;;
3901;SDS011;1966;49.908;9.156;2024-01-06T10:50:24;16.67;;;5.40;;
3901;SDS011;1966;49.908;9.156;2024-01-06T10:55:24;8.60;;;5.47;;
3901;SDS011;1966;49.908;9.156;2024-01-06T11:00:26;8.57;;;4.97;;
3901;SDS011;1966;49.908;9.156;2024-01-06T11:05:25;6.00;;;4.30;;
3901;SDS011;1966;49.908;9.156;2024-01-06T11:10:26;6.43;;;4.73;;
3901;SDS011;1966;49.908;9.156;2024-01-06T11:15:44;5.10;;;4.60;;
3901;SDS011;1966;49.908;9.156;2024-01-06T11:25:57;9.20;;;4.70;;
3901;SDS011;1966;49.908;9.156;2024-01-06T11:31:06;10.47;;;5.30;;
3901;SDS011;1966;49.908;9.156;2024-01-06T11:36:07;5.53;;;4.87;;
3901;SDS011;1966;49.908;9.156;2024-01-06T11:41:07;4.83;;;3.97;;
3901;SDS011;1966;49.908;9.156;2024-01-06T11:46:08;7.80;;;4.73;;
3901;SDS011;1966;49.908;9.156;2024-01-06T11:51:08;4.70;;;4.30;;
3901;SDS011;1966;49.908;9.156;2024-01-06T11:56:07;8.83;;;5.43;;
3901;SDS011;1966;49.908;9.156;2024-01-06T12:01:06;6.33;;;4.97;;
3901;SDS011;1966;49.908;9.156;2024-01-06T12:06:07;5.17;;;4.70;;
3901;SDS011;1966;49.908;9.156;2024-01-06T12:11:06;4.57;;;4.03;;
3901;SDS011;1966;49.908;9.156;2024-01-06T12:16:05;6.43;;;3.60;;
3901;SDS011;1966;49.908;9.156;2024-01-06T12:21:07;7.37;;;4.40;;
3901;SDS011;1966;49.908;9.156;2024-01-06T12:26:07;5.90;;;4.60;;
3901;SDS011;1966;49.908;9.156;2024-01-06T12:31:08;4.50;;;3.93;;
3901;SDS011;1966;49.908;9.156;2024-01-06T12:36:09;5.33;;;4.47;;
3901;SDS011;1966;49.908;9.156;2024-01-06T12:41:09;4.03;;;3.43;;
3901;SDS011;1966;49.908;9.156;2024-01-06T12:46:09;5.20;;;4.53;;
3901;SDS011;1966;49.908;9.156;2024-01-06T12:51:10;5.63;;;5.03;;
3901;SDS011;1966;49.908;9.156;2024-01-06T12:56:09;6.83;;;4.77;;
3901;SDS011;1966;49.908;9.156;2024-01-06T13:01:08;9.17;;;5.73;;
3901;SDS011;1966;49.908;9.156;2024-01-06T13:06:07;7.33;;;5.80;;
3901;SDS011;1966;49.908;9.156;2024-01-06T13:11:08;9.13;;;6.83;;
3901;SDS011;1966;49.908;9.156;2024-01-06T13:16:08;17.10;;;10.50;;
3901;SDS011;1966;49.908;9.156;2024-01-06T13:21:07;10.10;;;8.50;;
3901;SDS011;1966;49.908;9.156;2024-01-06T13:26:07;7.10;;;6.13;;
3901;SDS011;1966;49.908;9.156;2024-01-06T13:31:08;7.90;;;6.57;;
3901;SDS011;1966;49.908;9.156;2024-01-06T13:36:07;11.47;;;7.13;;
3901;SDS011;1966;49.908;9.156;2024-01-06T13:41:07;7.20;;;6.20;;
3901;SDS011;1966;49.908;9.156;2024-01-06T13:46:07;8.60;;;6.17;;
3901;SDS011;1966;49.908;9.156;2024-01-06T13:51:06;13.67;;;7.63;;
3901;SDS011;1966;49.908;9.156;2024-01-06T13:56:06;12.40;;;9.07;;
3901;SDS011;1966;49.908;9.156;2024-01-06T14:01:05;17.00;;;9.77;;
3901;SDS011;1966;49.908;9.156;2024-01-06T14:06:09;16.03;;;10.00;;
3901;SDS011;1966;49.908;9.156;2024-01-06T14:11:09;12.83;;;8.77;;
3901;SDS011;1966;49.908;9.156;2024-01-06T14:16:08;15.00;;;8.13;;
3901;SDS011;1966;49.908;9.156;2024-01-06T14:21:09;9.40;;;7.40;;
3901;SDS011;1966;49.908;9.156;2024-01-06T14:26:09;10.83;;;7.03;;
3901;SDS011;1966;49.908;9.156;2024-01-06T14:31:08;8.70;;;6.53;;
3901;SDS011;1966;49.908;9.156;2024-01-06T14:36:09;13.13;;;8.30;;
3901;SDS011;1966;49.908;9.156;2024-01-06T14:41:08;9.03;;;7.20;;
3901;SDS011;1966;49.908;9.156;2024-01-06T14:46:08;7.80;;;5.90;;
3901;SDS011;1966;49.908;9.156;2024-01-06T14:51:07;9.17;;;6.80;;
3901;SDS011;1966;49.908;9.156;2024-01-06T14:56:07;6.50;;;5.73;;
3901;SDS011;1966;49.908;9.156;2024-01-06T15:01:07;7.93;;;5.50;;
3901;SDS011;1966;49.908;9.156;2024-01-06T15:06:06;9.13;;;6.27;;
3901;SDS011;1966;49.908;9.156;2024-01-06T15:11:07;6.83;;;5.63;;
3901;SDS011;1966;49.908;9.156;2024-01-06T15:16:06;7.10;;;5.90;;
3901;SDS011;1966;49.908;9.156;2024-01-06T15:21:06;14.47;;;7.53;;
3901;SDS011;1966;49.908;9.156;2024-01-06T15:26:06;8.60;;;6.50;;
3901;SDS011;1966;49.908;9.156;2024-01-06T15:31:06;8.73;;;6.80;;
3901;SDS011;1966;49.908;9.156;2024-01-06T15:36:05;9.30;;;7.57;;
3901;SDS011;1966;49.908;9.156;2024-01-06T15:41:04;8.53;;;7.10;;
3901;SDS011;1966;49.908;9.156;2024-01-06T15:46:06;7.83;;;6.47;;
3901;SDS011;1966;49.908;9.156;2024-01-06T15:51:05;9.23;;;6.83;;
3901;SDS011;1966;49.908;9.156;2024-01-06T15:56:04;8.20;;;6.20;;
3901;SDS011;1966;49.908;9.156;2024-01-06T16:01:05;11.57;;;7.27;;
3901;SDS011;1966;49.908;9.156;2024-01-06T16:06:05;9.90;;;6.60;;
3901;SDS011;1966;49.908;9.156;2024-01-06T16:11:04;11.17;;;7.67;;
3901;SDS011;1966;49.908;9.156;2024-01-06T16:16:03;9.10;;;6.90;;
3901;SDS011;1966;49.908;9.156;2024-01-06T16:21:05;13.37;;;6.73;;
3901;SDS011;1966;49.908;9.156;2024-01-06T16:26:04;10.77;;;7.60;;
3901;SDS011;1966;49.908;9.156;2024-01-06T16:31:03;11.10;;;7.43;;
3901;SDS011;1966;49.908;9.156;2024-01-06T16:36:03;8.50;;;6.00;;
3901;SDS011;1966;49.908;9.156;2024-01-06T16:41:07;10.50;;;8.17;;
3901;SDS011;1966;49.908;9.156;2024-01-06T16:46:07;14.10;;;9.30;;
3901;SDS011;1966;49.908;9.156;2024-01-06T16:51:07;12.53;;;8.10;;
3901;SDS011;1966;49.908;9.156;2024-01-06T16:56:08;9.20;;;7.47;;
3901;SDS011;1966;49.908;9.156;2024-01-06T17:01:07;8.90;;;7.07;;
3901;SDS011;1966;49.908;9.156;2024-01-06T17:06:06;10.83;;;7.20;;
3901;SDS011;1966;49.908;9.156;2024-01-06T17:11:09;11.03;;;7.57;;
3901;SDS011;1966;49.908;9.156;2024-01-06T17:16:08;6.67;;;5.30;;
3901;SDS011;1966;49.908;9.156;2024-01-06T17:21:08;9.93;;;6.03;;
3901;SDS011;1966;49.908;9.156;2024-01-06T17:26:13;6.53;;;5.77;;
3901;SDS011;1966;49.908;9.156;2024-01-06T17:31:13;9.63;;;6.63;;
3901;SDS011;1966;49.908;9.156;2024-01-06T17:36:12;7.93;;;5.60;;
3901;SDS011;1966;49.908;9.156;2024-01-06T17:41:14;7.27;;;6.50;;
3901;SDS011;1966;49.908;9.156;2024-01-06T17:46:13;9.70;;;6.77;;
3901;SDS011;1966;49.908;9.156;2024-01-06T17:51:12;8.50;;;6.87;;
3901;SDS011;1966;49.908;9.156;2024-01-06T17:56:11;11.37;;;6.77;;
3901;SDS011;1966;49.908;9.156;2024-01-06T18:01:12;9.13;;;7.33;;
3901;SDS011;1966;49.908;9.156;2024-01-06T18:06:12;11.23;;;8.50;;
3901;SDS011;1966;49.908;9.156;2024-01-06T18:11:12;15.50;;;8.17;;
3901;SDS011;1966;49.908;9.156;2024-01-06T18:16:12;12.80;;;9.77;;
3901;SDS011;1966;49.908;9.156;2024-01-06T18:21:12;13.90;;;9.60;;
3901;SDS011;1966;49.908;9.156;2024-01-06T18:26:12;16.30;;;11.60;;
3901;SDS011;1966;49.908;9.156;2024-01-06T18:31:15;18.60;;;12.13;;
3901;SDS011;1966;49.908;9.156;2024-01-06T18:36:14;16.50;;;11.50;;
3901;SDS011;1966;49.908;9.156;2024-01-06T18:41:14;14.93;;;10.90;;
3901;SDS011;1966;49.908;9.156;2024-01-06T18:46:13;20.50;;;11.90;;
3901;SDS011;1966;49.908;9.156;2024-01-06T18:51:15;18.13;;;12.40;;
3901;SDS011;1966;49.908;9.156;2024-01-06T18:56:14;19.67;;;12.53;;
3901;SDS011;1966;49.908;9.156;2024-01-06T19:01:14;20.57;;;13.00;;
3901;SDS011;1966;49.908;9.156;2024-01-06T19:06:13;18.33;;;12.10;;
3901;SDS011;1966;49.908;9.156;2024-01-06T19:11:14;23.77;;;13.97;;
3901;SDS011;1966;49.908;9.156;2024-01-06T19:16:13;20.60;;;12.63;;
3901;SDS011;1966;49.908;9.156;2024-01-06T19:21:12;20.03;;;12.90;;
3901;SDS011;1966;49.908;9.156;2024-01-06T19:26:14;18.20;;;11.90;;
3901;SDS011;1966;49.908;9.156;2024-01-06T19:31:13;20.30;;;13.40;;
3901;SDS011;1966;49.908;9.156;2024-01-06T19:36:13;18.30;;;11.90;;
3901;SDS011;1966;49.908;9.156;2024-01-06T19:41:14;21.83;;;12.53;;
3901;SDS011;1966;49.908;9.156;2024-01-06T19:46:13;22.03;;;13.60;;
3901;SDS011;1966;49.908;9.156;2024-01-06T19:51:12;22.40;;;14.10;;
3901;SDS011;1966;49.908;9.156;2024-01-06T19:56:14;28.07;;;15.23;;
3901;SDS011;1966;49.908;9.156;2024-01-06T20:01:14;24.80;;;13.63;;
3901;SDS011;1966;49.908;9.156;2024-01-06T20:06:13;21.43;;;13.00;;
3901;SDS011;1966;49.908;9.156;2024-01-06T20:11:12;17.10;;;11.93;;
3901;SDS011;1966;49.908;9.156;2024-01-06T20:16:13;20.07;;;12.80;;
3901;SDS011;1966;49.908;9.156;2024-01-06T20:21:12;26.07;;;15.67;;
3901;SDS011;1966;49.908;9.156;2024-01-06T20:26:11;31.23;;;17.27;;
3901;SDS011;1966;49.908;9.156;2024-01-06T20:31:12;47.60;;;23.50;;
3901;SDS011;1966;49.908;9.156;2024-01-06T20:36:12;25.03;;;15.73;;
3901;SDS011;1966;49.908;9.156;2024-01-06T20:41:12;24.30;;;14.63;;
3901;SDS011;1966;49.908;9.156;2024-01-06T20:46:16;20.17;;;12.80;;
3901;SDS011;1966;49.908;9.156;2024-01-06T20:51:16;18.70;;;11.60;;
3901;SDS011;1966;49.908;9.156;2024-01-06T20:56:16;16.60;;;11.50;;
3901;SDS011;1966;49.908;9.156;2024-01-06T21:01:17;27.83;;;16.40;;
3901;SDS011;1966;49.908;9.156;2024-01-06T21:06:16;35.30;;;23.60;;
3901;SDS011;1966;49.908;9.156;2024-01-06T21:11:15;20.10;;;14.60;;
3901;SDS011;1966;49.908;9.156;2024-01-06T21:16:14;20.70;;;12.17;;
3901;SDS011;1966;49.908;9.156;2024-01-06T21:21:16;19.20;;;11.87;;
3901;SDS011;1966;49.908;9.156;2024-01-06T21:26:16;19.70;;;10.03;;
3901;SDS011;1966;49.908;9.156;2024-01-06T21:31:16;15.37;;;10.80;;
3901;SDS011;1966;49.908;9.156;2024-01-06T21:36:18;15.87;;;10.17;;
3901;SDS011;1966;49.908;9.156;2024-01-06T21:41:17;18.40;;;11.30;;
3901;SDS011;1966;49.908;9.156;2024-01-06T21:46:18;15.67;;;9.43;;
3901;SDS011;1966;49.908;9.156;2024-01-06T21:51:19;14.00;;;9.43;;
3901;SDS011;1966;49.908;9.156;2024-01-06T21:56:18;12.83;;;8.10;;
3901;SDS011;1966;49.908;9.156;2024-01-06T22:01:17;14.10;;;9.10;;
3901;SDS011;1966;49.908;9.156;2024-01-06T22:06:16;14.93;;;8.23;;
3901;SDS011;1966;49.908;9.156;2024-01-06T22:11:17;12.60;;;8.00;;
3901;SDS011;1966;49.908;9.156;2024-01-06T22:16:16;14.50;;;9.07;;
3901;SDS011;1966;49.908;9.156;2024-01-06T22:21:16;12.60;;;7.97;;
3901;SDS011;1966;49.908;9.156;2024-01-06T22:26:17;11.57;;;7.20;;
3901;SDS011;1966;49.908;9.156;2024-01-06T22:31:17;12.70;;;7.60;;
3901;SDS011;1966;49.908;9.156;2024-01-06T22:36:16;11.13;;;7.50;;
3901;SDS011;1966;49.908;9.156;2024-01-06T22:41:15;13.63;;;7.60;;
3901;SDS011;1966;49.908;9.156;2024-01-06T22:46:16;10.23;;;7.23;;
3901;SDS011;1966;49.908;9.156;2024-01-06T22:51:15;10.80;;;7.37;;
3901;SDS011;1966;49.908;9.156;2024-01-06T22:56:14;10.03;;;7.13;;
3901;SDS011;1966;49.908;9.156;2024-01-06T23:01:16;11.40;;;7.87;;
3901;SDS011;1966;49.908;9.156;2024-01-06T23:06:15;12.57;;;7.93;;
3901;SDS011;1966;49.908;9.156;2024-01-06T23:11:15;13.93;;;8.77;;
3901;SDS011;1966;49.908;9.156;2024-01-06T23:16:16;14.50;;;9.10;;
3901;SDS011;1966;49.908;9.156;2024-01-06T23:21:16;10.63;;;7.37;;
3901;SDS011;1966;49.908;9.156;2024-01-06T23:26:15;10.40;;;6.70;;
3901;SDS011;1966;49.908;9.156;2024-01-06T23:31:17;10.20;;;6.57;;
3901;SDS011;1966;49.908;9.156;2024-01-06T23:36:16;13.90;;;6.20;;
3901;SDS011;1966;49.908;9.156;2024-01-06T23:41:15;12.43;;;6.97;;
3901;SDS011;1966;49.908;9.156;2024-01-06T23:46:14;7.97;;;5.70;;
3901;SDS011;1966;49.908;9.156;2024-01-06T23:51:16;10.40;;;6.63;;
3901;SDS011;1966;49.908;9.156;2024-01-06T23:56:15;7.80;;;6.00;;
